createdAt,value
2023-11-24T00:06:58.601Z,4.9
2023-11-24T00:15:44.672Z,5.1
2023-11-24T00:23:29.821Z,4.8
2023-11-24T00:31:45.479Z,4.8
2023-11-24T00:40:01.150Z,4.7
2023-11-24T00:48:16.672Z,4.6
2023-11-24T00:56:32.334Z,4.5
2023-11-24T01:04:47.918Z,4.5
2023-11-24T01:13:03.512Z,4.2
2023-11-24T01:21:19.108Z,4.1
2023-11-24T01:30:05.377Z,3.9
2023-11-24T01:46:05.852Z,3.7
2023-11-24T01:54:36.804Z,3.9
2023-11-24T02:02:37.040Z,4
2023-11-24T02:10:52.563Z,4.1
2023-11-24T02:19:08.309Z,4.1
2023-11-24T02:27:23.755Z,4
2023-11-24T02:35:39.388Z,4.1
2023-11-24T02:43:55.021Z,4.1
2023-11-24T02:53:10.993Z,4.2
2023-11-24T03:00:26.102Z,4.1
2023-11-24T03:08:41.648Z,4
2023-11-24T03:25:43.448Z,4
2023-11-24T03:33:28.392Z,4.2
2023-11-24T03:41:43.927Z,4.2
2023-11-24T03:49:59.520Z,4.2
2023-11-24T03:58:15.109Z,4.1
2023-11-24T04:06:30.769Z,4
2023-11-24T04:14:46.271Z,3.9
2023-11-24T04:23:01.857Z,3.7
2023-11-24T04:31:17.404Z,3.9
2023-11-24T04:39:32.993Z,3.5
2023-11-24T04:47:48.526Z,3.9
2023-11-24T04:56:04.063Z,3.8
2023-11-24T05:04:19.748Z,3.8
2023-11-24T05:12:35.229Z,3.8
2023-11-24T05:20:50.736Z,4
2023-11-24T05:29:06.382Z,3.9
2023-11-24T05:38:22.505Z,4
2023-11-24T05:45:44.769Z,4
2023-11-24T05:53:53.103Z,4.1
2023-11-24T06:02:08.713Z,4
2023-11-24T06:10:24.228Z,4.1
2023-11-24T06:18:39.838Z,4.3
2023-11-24T06:26:55.455Z,4.4
2023-11-24T06:35:11.043Z,4.5
2023-11-24T06:43:26.610Z,4.3
2023-11-24T06:51:42.336Z,4.3
2023-11-24T06:59:57.802Z,4.4
2023-11-24T07:08:13.385Z,4.6
2023-11-24T07:16:29.016Z,4.5
2023-11-24T07:24:44.609Z,4.6
2023-11-24T07:33:00.235Z,4.7
2023-11-24T07:41:15.827Z,4.6
2023-11-24T07:49:31.475Z,4.6
2023-11-24T07:57:47.045Z,4.6
2023-11-24T08:06:02.666Z,4.6
2023-11-24T08:14:18.239Z,4.8
2023-11-24T08:30:49.525Z,5.2
2023-11-24T08:39:05.124Z,5.2
2023-11-24T08:47:20.734Z,5.4
2023-11-24T08:55:36.345Z,5.6
2023-11-24T09:03:52.013Z,5.9
2023-11-24T09:12:07.616Z,6
2023-11-24T09:20:23.236Z,6
2023-11-24T09:28:38.904Z,6.2
2023-11-24T09:36:54.539Z,6.3
2023-11-24T09:45:10.174Z,6.6
2023-11-24T09:53:25.857Z,6.6
2023-11-24T10:09:57.186Z,6.3
2023-11-24T10:18:12.790Z,6.4
2023-11-24T10:26:28.432Z,6.2
2023-11-24T10:34:44.162Z,7.4
2023-11-24T10:42:59.928Z,7.7
2023-11-24T10:51:15.470Z,7.4
2023-11-24T10:59:31.171Z,7.3
2023-11-24T11:07:46.922Z,7.5
2023-11-24T11:16:02.661Z,7.3
2023-11-24T11:24:18.359Z,7.2
2023-11-24T11:32:34.102Z,6.9
2023-11-24T11:40:49.745Z,6.8
2023-11-24T11:49:05.431Z,6.8
2023-11-24T11:57:21.097Z,6.7
2023-11-24T12:05:36.783Z,7
2023-11-24T12:13:52.446Z,7
2023-11-24T12:22:08.162Z,7.4
2023-11-24T12:30:23.851Z,8.2
2023-11-24T12:38:39.586Z,9.7
2023-11-24T12:46:55.470Z,10.1
2023-11-24T12:55:11.294Z,10.6
2023-11-24T13:03:27.128Z,10.3
2023-11-24T13:11:43.051Z,10.1
2023-11-24T13:19:58.757Z,9.6
2023-11-24T13:28:14.554Z,8.8
2023-11-24T13:36:30.315Z,8.6
2023-11-24T13:44:46.297Z,8.8
2023-11-24T13:53:01.824Z,8.1
2023-11-24T14:01:17.887Z,8.1
2023-11-24T14:09:33.528Z,7.9
2023-11-24T14:17:49.024Z,7.8
2023-11-24T14:26:04.734Z,7.9
2023-11-24T14:34:20.599Z,7.7
2023-11-24T14:42:36.210Z,7.5
2023-11-24T14:50:51.925Z,7.8
2023-11-24T14:59:07.610Z,7.7
2023-11-24T15:07:23.366Z,7.6
2023-11-24T15:15:39.056Z,7.8
2023-11-24T15:23:54.763Z,7.7
2023-11-24T15:32:10.751Z,7.6
2023-11-24T15:40:26.244Z,7.7
2023-11-24T15:48:42.073Z,7.6
2023-11-24T15:56:57.694Z,7.7
2023-11-24T16:05:13.385Z,7.3
2023-11-24T16:13:29.106Z,7.3
2023-11-24T16:21:44.848Z,7.3
2023-11-24T16:30:00.598Z,7.3
2023-11-24T16:38:16.283Z,7.1
2023-11-24T16:46:32.009Z,6.8
2023-11-24T16:54:47.617Z,6.5
2023-11-24T17:03:03.401Z,6.1
2023-11-24T17:11:18.970Z,6
2023-11-24T17:19:34.769Z,6.2
2023-11-24T17:27:50.287Z,6.2
2023-11-24T17:36:05.963Z,6.1
2023-11-24T17:44:21.611Z,6
2023-11-24T17:52:37.270Z,5.9
2023-11-24T18:00:52.997Z,5
2023-11-24T18:09:08.553Z,4.8
2023-11-24T18:17:24.144Z,4.8
2023-11-24T18:25:40.236Z,4.7
2023-11-24T18:33:55.418Z,4.5
2023-11-24T18:42:10.951Z,4.4
2023-11-24T18:50:26.568Z,4.3
2023-11-24T18:58:42.129Z,4.3
2023-11-24T19:06:57.695Z,4.2
2023-11-24T19:15:13.276Z,4.1
2023-11-24T19:23:28.846Z,4.1
2023-11-24T19:31:44.460Z,4
2023-11-24T19:40:00.021Z,3.9
2023-11-24T19:48:15.593Z,4.2
2023-11-24T20:13:10.768Z,4.1
2023-11-24T20:21:17.907Z,3.9
2023-11-24T20:37:49.014Z,3.4
2023-11-24T20:46:04.757Z,3.3
2023-11-24T20:54:20.099Z,3.1
2023-11-24T21:02:35.717Z,3.1
2023-11-24T21:10:51.312Z,3.2
2023-11-24T21:19:06.763Z,3.5
2023-11-24T21:27:22.274Z,3.4
2023-11-24T21:43:53.404Z,2.9
2023-11-24T22:00:24.469Z,2.7
2023-11-24T22:08:39.972Z,2.4
2023-11-24T22:16:55.534Z,2.3
2023-11-24T22:41:42.071Z,2.5
2023-11-24T22:49:57.523Z,2.5
2023-11-24T23:06:28.544Z,2.7
2023-11-24T23:22:59.713Z,2.4
2023-11-24T23:31:15.183Z,2.6
2023-11-24T23:39:30.638Z,2.6
2023-11-24T23:56:01.660Z,2.6
